Time;durP1;ratioP1;P1;durP2;ratioP2;P2;SDS_P1;SDS_P2;PMS_P1;PMS_P2;Temp;Humidity;BMP_temperature;BMP_pressure;BME280_temperature;BME280_humidity;BME280_pressure;Samples;Min_cycle;Max_cycle;Signal;HPM_P1;HPM_P2
2023/08/24 00:00:58;;;;;;;6.07;5.45;;;17.90;93.20;;;;;;5014106;28;20121;-75
2023/08/24 00:03:24;;;;;;;6.13;5.25;;;18.00;93.10;;;;;;5016488;28;20160;-75
2023/08/24 00:05:51;;;;;;;8.18;5.80;;;18.00;93.10;;;;;;5015166;28;20049;-75
2023/08/24 00:08:17;;;;;;;8.40;6.68;;;18.00;92.90;;;;;;5015611;28;20026;-75
2023/08/24 00:10:47;;;;;;;7.95;6.68;;;18.00;92.90;;;;;;5002036;28;20032;-76
2023/08/24 00:13:14;;;;;;;7.55;6.32;;;18.00;93.00;;;;;;5016207;28;20117;-76
2023/08/24 00:15:40;;;;;;;8.23;6.95;;;18.00;93.00;;;;;;5013445;28;20521;-76
2023/08/24 00:18:07;;;;;;;8.82;7.38;;;18.00;92.90;;;;;;5014407;28;20378;-75
2023/08/24 00:20:33;;;;;;;8.60;7.40;;;18.00;92.90;;;;;;5015761;28;20030;-76
2023/08/24 00:23:00;;;;;;;8.82;7.45;;;18.00;92.90;;;;;;5014716;28;20474;-75
2023/08/24 00:25:26;;;;;;;10.30;7.88;;;17.90;93.00;;;;;;5014561;28;20034;-75
2023/08/24 00:27:55;;;;;;;9.38;7.90;;;17.90;93.00;;;;;;5014699;28;20072;-76
2023/08/24 00:30:21;;;;;;;9.25;7.22;;;17.90;92.90;;;;;;5030405;28;20120;-75
2023/08/24 00:32:47;;;;;;;8.20;7.40;;;17.90;92.80;;;;;;5013561;28;20034;-76
2023/08/24 00:35:13;;;;;;;8.52;7.47;;;17.90;92.90;;;;;;5031388;28;20057;-76
2023/08/24 00:37:40;;;;;;;8.23;6.90;;;17.90;92.90;;;;;;5033575;28;20049;-76
2023/08/24 00:40:10;;;;;;;7.75;6.78;;;17.90;92.90;;;;;;5017947;28;20079;-76
2023/08/24 00:42:45;;;;;;;6.97;6.20;;;17.90;93.00;;;;;;5027140;28;20054;-76
2023/08/24 00:45:12;;;;;;;7.60;6.15;;;18.00;93.00;;;;;;5020045;28;20030;-76
2023/08/24 00:47:44;;;;;;;8.18;5.93;;;18.00;92.90;;;;;;5017598;28;20472;-76
2023/08/24 00:50:12;;;;;;;8.10;6.10;;;18.00;92.90;;;;;;5019472;28;20118;-75
2023/08/24 00:52:41;;;;;;;7.38;6.60;;;18.10;92.80;;;;;;5018306;28;20040;-76
2023/08/24 00:55:08;;;;;;;7.68;6.88;;;18.10;92.70;;;;;;5022859;28;20092;-78
2023/08/24 00:57:36;;;;;;;8.20;6.47;;;18.00;92.70;;;;;;5010255;28;20397;-78
2023/08/24 01:00:05;;;;;;;6.40;5.63;;;18.10;92.60;;;;;;5018188;28;20033;-78
2023/08/24 01:02:32;;;;;;;6.65;5.50;;;18.10;92.60;;;;;;5005750;28;20099;-78
2023/08/24 01:04:59;;;;;;;7.78;5.47;;;18.10;92.50;;;;;;5016114;28;20109;-79
2023/08/24 01:07:25;;;;;;;7.07;5.50;;;18.10;92.30;;;;;;5018840;28;20890;-78
2023/08/24 01:09:52;;;;;;;8.32;5.55;;;18.10;92.20;;;;;;5034358;28;20022;-78
2023/08/24 01:12:37;;;;;;;7.22;5.25;;;18.10;92.10;;;;;;5017787;28;20038;-78
2023/08/24 01:15:27;;;;;;;6.10;4.50;;;18.00;92.10;;;;;;5017037;28;20029;-80
2023/08/24 01:17:59;;;;;;;6.00;4.78;;;18.00;92.20;;;;;;5017881;28;20037;-77
2023/08/24 01:20:26;;;;;;;5.60;5.07;;;18.10;92.30;;;;;;5033825;28;20951;-81
2023/08/24 01:22:57;;;;;;;4.68;4.25;;;18.10;92.30;;;;;;5018166;28;20056;-80
2023/08/24 01:25:23;;;;;;;4.75;4.18;;;18.10;92.30;;;;;;5016081;28;20520;-80
2023/08/24 01:27:51;;;;;;;5.30;4.53;;;18.10;92.30;;;;;;5017080;28;20049;-80
2023/08/24 01:30:19;;;;;;;5.30;4.60;;;18.10;92.20;;;;;;5016215;28;20036;-80
2023/08/24 01:32:45;;;;;;;5.68;4.40;;;18.10;92.10;;;;;;5033137;28;20040;-80
2023/08/24 01:35:11;;;;;;;5.55;4.63;;;18.20;92.10;;;;;;5034516;28;20033;-80
2023/08/24 01:37:38;;;;;;;6.38;4.90;;;18.20;92.10;;;;;;5017147;28;20108;-80
2023/08/24 01:40:14;;;;;;;4.88;4.20;;;18.10;92.20;;;;;;5017000;28;20031;-80
2023/08/24 01:42:51;;;;;;;5.40;4.90;;;18.10;92.20;;;;;;4991686;28;20038;-79
2023/08/24 01:45:18;;;;;;;5.80;5.20;;;18.10;92.10;;;;;;5034157;28;20037;-79
2023/08/24 01:47:47;;;;;;;6.15;5.00;;;18.00;92.50;;;;;;5018075;28;20052;-80
2023/08/24 01:50:13;;;;;;;6.05;4.88;;;18.00;92.50;;;;;;5022083;28;20064;-80
2023/08/24 01:52:41;;;;;;;6.32;5.10;;;18.00;92.70;;;;;;5004625;28;20103;-80
2023/08/24 01:55:07;;;;;;;6.78;5.63;;;18.00;92.60;;;;;;5032085;28;20537;-80
2023/08/24 01:57:33;;;;;;;5.70;4.50;;;17.90;92.40;;;;;;5021813;28;20041;-81
2023/08/24 01:59:59;;;;;;;5.25;4.82;;;18.00;92.60;;;;;;5000074;28;20038;-79
2023/08/24 02:02:25;;;;;;;6.60;5.45;;;18.00;92.60;;;;;;5033033;28;20053;-78
2023/08/24 02:04:51;;;;;;;7.32;5.28;;;17.90;92.70;;;;;;5032194;28;20041;-78
2023/08/24 02:07:17;;;;;;;7.05;5.05;;;17.90;92.70;;;;;;5015489;28;20049;-78
2023/08/24 02:09:43;;;;;;;7.00;4.57;;;17.80;92.80;;;;;;5033000;28;20037;-79
2023/08/24 02:12:09;;;;;;;5.47;4.97;;;17.80;93.00;;;;;;5000481;28;20093;-77
2023/08/24 02:14:35;;;;;;;5.13;4.65;;;17.80;93.00;;;;;;5006162;28;20041;-77
2023/08/24 02:17:01;;;;;;;6.75;5.13;;;17.90;93.00;;;;;;5003755;28;20064;-77
2023/08/24 02:19:30;;;;;;;6.45;5.32;;;17.80;93.00;;;;;;5015388;28;20172;-77
2023/08/24 02:21:55;;;;;;;5.90;5.13;;;17.80;93.00;;;;;;5017276;28;20382;-77
2023/08/24 02:24:22;;;;;;;6.30;5.07;;;17.80;93.10;;;;;;5018665;28;20044;-77
2023/08/24 02:26:48;;;;;;;6.53;4.82;;;17.80;93.20;;;;;;5032011;28;20048;-77
2023/08/24 02:29:14;;;;;;;5.55;4.88;;;17.80;93.10;;;;;;5032840;28;20061;-77
2023/08/24 02:31:40;;;;;;;5.75;4.43;;;17.90;93.20;;;;;;5032358;28;20073;-78
2023/08/24 02:34:07;;;;;;;7.57;5.63;;;17.90;93.10;;;;;;5016708;28;20061;-77
2023/08/24 02:36:33;;;;;;;5.68;5.07;;;17.80;93.30;;;;;;5033069;28;20026;-77
2023/08/24 02:39:00;;;;;;;7.28;5.75;;;17.90;93.10;;;;;;5016323;28;20176;-77
2023/08/24 02:41:27;;;;;;;7.40;6.15;;;17.80;92.90;;;;;;5016529;28;20041;-77
2023/08/24 02:43:53;;;;;;;7.00;6.30;;;17.80;93.00;;;;;;5032695;28;20512;-79
2023/08/24 02:46:20;;;;;;;7.72;6.60;;;17.80;93.00;;;;;;5030923;28;20489;-79
2023/08/24 02:48:47;;;;;;;7.50;6.68;;;17.80;92.90;;;;;;5014678;28;20038;-78
2023/08/24 02:51:13;;;;;;;8.05;6.57;;;17.80;92.90;;;;;;5022207;28;20040;-80
2023/08/24 02:53:40;;;;;;;8.48;7.20;;;17.70;93.00;;;;;;5032979;28;20041;-79
2023/08/24 02:56:06;;;;;;;9.18;6.95;;;17.70;93.10;;;;;;5032249;28;20037;-79
2023/08/24 02:58:31;;;;;;;8.15;7.25;;;17.70;93.10;;;;;;5014037;28;20037;-80
2023/08/24 03:00:58;;;;;;;8.30;7.00;;;17.70;93.10;;;;;;5014837;28;20386;-80
2023/08/24 03:03:25;;;;;;;9.48;7.00;;;17.70;92.90;;;;;;5014294;28;20037;-79
2023/08/24 03:06:01;;;;;;;8.00;6.30;;;17.60;92.80;;;;;;5015429;28;20092;-79
2023/08/24 03:08:29;;;;;;;8.82;6.32;;;17.60;92.90;;;;;;5013556;28;20445;-80
2023/08/24 03:10:56;;;;;;;8.10;6.70;;;17.60;92.90;;;;;;4998669;28;20533;-78
2023/08/24 03:13:22;;;;;;;7.80;7.00;;;17.50;92.90;;;;;;5031781;28;20030;-76
2023/08/24 03:15:49;;;;;;;9.70;8.48;;;17.50;93.00;;;;;;5030470;28;20091;-78
2023/08/24 03:18:16;;;;;;;9.07;8.13;;;17.50;93.00;;;;;;5004197;28;20057;-78
2023/08/24 03:20:45;;;;;;;10.85;9.00;;;17.50;93.00;;;;;;4996245;28;20516;-75
2023/08/24 03:23:10;;;;;;;9.77;8.77;;;17.50;93.00;;;;;;5015071;28;20045;-76
2023/08/24 03:25:39;;;;;;;10.35;8.32;;;17.50;93.00;;;;;;5013038;28;20037;-75
2023/08/24 03:28:08;;;;;;;10.40;8.77;;;17.40;93.00;;;;;;5027671;28;20124;-76
2023/08/24 03:30:36;;;;;;;10.18;7.95;;;17.40;93.10;;;;;;4980132;28;20033;-76
2023/08/24 03:33:02;;;;;;;13.13;7.32;;;17.40;93.00;;;;;;4996885;28;20132;-75
2023/08/24 03:35:33;;;;;;;8.68;6.60;;;17.40;93.00;;;;;;5013821;28;20514;-75
2023/08/24 03:37:59;;;;;;;7.47;6.50;;;17.40;93.30;;;;;;5014530;28;20038;-76
2023/08/24 03:40:26;;;;;;;7.63;6.50;;;17.30;93.00;;;;;;4997834;28;20057;-75
2023/08/24 03:42:53;;;;;;;6.65;5.57;;;17.40;92.90;;;;;;5013486;28;20033;-81
2023/08/24 03:45:20;;;;;;;6.65;5.68;;;17.30;92.90;;;;;;5013427;28;20072;-80
2023/08/24 03:47:46;;;;;;;7.07;5.25;;;17.30;92.90;;;;;;5027860;28;20047;-79
2023/08/24 03:50:12;;;;;;;8.57;5.88;;;17.30;92.90;;;;;;5013514;28;20577;-78
2023/08/24 03:52:39;;;;;;;8.07;6.20;;;17.30;92.90;;;;;;5015650;28;20033;-76
2023/08/24 03:55:06;;;;;;;8.02;6.03;;;17.20;92.90;;;;;;5013011;28;20049;-77
2023/08/24 03:57:32;;;;;;;6.28;5.45;;;17.20;92.90;;;;;;4997385;28;20071;-77
2023/08/24 03:59:58;;;;;;;7.38;5.90;;;17.20;93.10;;;;;;5027940;28;20057;-77
2023/08/24 04:02:25;;;;;;;6.25;5.45;;;17.20;93.10;;;;;;5013385;28;20517;-77
2023/08/24 04:04:51;;;;;;;7.45;6.30;;;17.20;93.00;;;;;;4980739;28;20042;-76
2023/08/24 04:07:17;;;;;;;7.68;6.47;;;17.10;93.30;;;;;;5000952;28;20044;-76
2023/08/24 04:09:43;;;;;;;7.88;6.00;;;17.10;93.20;;;;;;5013637;28;20033;-76
2023/08/24 04:12:09;;;;;;;7.45;6.18;;;17.10;93.30;;;;;;5020826;28;20038;-75
2023/08/24 04:14:35;;;;;;;8.07;6.40;;;17.10;93.60;;;;;;5013807;28;20047;-78
2023/08/24 04:17:01;;;;;;;11.38;6.85;;;17.10;93.30;;;;;;5015163;28;20045;-76
2023/08/24 04:19:27;;;;;;;8.52;6.57;;;17.10;93.40;;;;;;4997697;28;20041;-75
2023/08/24 04:21:53;;;;;;;9.50;6.88;;;17.10;93.40;;;;;;4997514;28;20034;-76
2023/08/24 04:24:18;;;;;;;10.48;6.80;;;17.10;93.40;;;;;;5014740;28;20021;-76
2023/08/24 04:26:44;;;;;;;8.13;6.28;;;17.10;93.40;;;;;;5013495;28;20433;-76
2023/08/24 04:29:10;;;;;;;7.60;5.93;;;17.10;93.60;;;;;;5014564;28;20030;-76
2023/08/24 04:31:37;;;;;;;9.30;6.75;;;17.10;93.30;;;;;;5014539;28;20128;-75
2023/08/24 04:34:04;;;;;;;9.55;6.25;;;17.00;93.30;;;;;;5014004;28;20046;-75
2023/08/24 04:36:30;;;;;;;8.35;6.53;;;17.00;93.30;;;;;;5014683;28;20109;-75
2023/08/24 04:38:56;;;;;;;9.50;6.40;;;17.00;93.30;;;;;;5013683;28;20493;-75
2023/08/24 04:41:22;;;;;;;6.07;5.47;;;17.00;93.30;;;;;;5013578;28;20088;-75
2023/08/24 04:43:47;;;;;;;8.02;5.60;;;17.00;93.20;;;;;;5012383;28;20030;-75
2023/08/24 04:46:13;;;;;;;6.45;5.53;;;17.00;93.10;;;;;;5011930;28;20034;-75
2023/08/24 04:48:39;;;;;;;8.18;5.57;;;16.90;93.10;;;;;;5011962;28;20035;-76
2023/08/24 04:51:05;;;;;;;6.65;5.18;;;16.90;93.10;;;;;;5011444;28;20033;-76
2023/08/24 04:53:32;;;;;;;6.95;5.00;;;17.00;93.00;;;;;;5029056;28;20520;-75
2023/08/24 04:55:58;;;;;;;6.63;5.18;;;16.90;93.00;;;;;;5012318;28;20045;-75
2023/08/24 04:58:25;;;;;;;7.28;5.55;;;16.90;93.00;;;;;;5013651;28;20042;-76
2023/08/24 05:00:51;;;;;;;7.32;5.18;;;16.90;93.00;;;;;;5014143;28;20088;-76
2023/08/24 05:03:19;;;;;;;7.38;5.28;;;16.90;93.00;;;;;;5013636;28;20124;-76
2023/08/24 05:05:45;;;;;;;5.90;5.18;;;16.90;92.90;;;;;;5011959;28;20420;-77
2023/08/24 05:08:11;;;;;;;5.95;5.25;;;16.80;93.10;;;;;;5014248;28;20030;-77
2023/08/24 05:10:38;;;;;;;5.45;4.95;;;16.90;93.00;;;;;;5012073;28;20468;-76
2023/08/24 05:13:04;;;;;;;6.22;4.38;;;16.80;92.90;;;;;;5012736;28;20036;-78
2023/08/24 05:15:30;;;;;;;5.22;4.22;;;16.80;92.80;;;;;;5014037;28;20497;-76
2023/08/24 05:17:59;;;;;;;6.20;4.32;;;16.80;92.80;;;;;;5013920;28;20461;-76
2023/08/24 05:20:27;;;;;;;7.35;4.05;;;16.80;92.70;;;;;;5012457;28;20038;-77
2023/08/24 05:22:56;;;;;;;6.00;3.75;;;16.80;92.80;;;;;;5017637;28;20049;-77
2023/08/24 05:25:22;;;;;;;4.88;3.90;;;16.80;92.50;;;;;;5016958;28;20110;-75
2023/08/24 05:27:49;;;;;;;4.20;3.60;;;16.80;92.50;;;;;;5016287;28;20583;-76
2023/08/24 05:30:16;;;;;;;4.20;3.63;;;16.80;92.50;;;;;;5015412;28;20029;-76
2023/08/24 05:32:41;;;;;;;6.00;3.38;;;16.80;92.50;;;;;;5015850;28;20030;-76
2023/08/24 05:35:08;;;;;;;5.15;3.65;;;16.70;92.50;;;;;;5016843;28;20473;-76
2023/08/24 05:37:35;;;;;;;4.97;4.00;;;16.70;92.60;;;;;;5015762;28;20034;-76
2023/08/24 05:40:02;;;;;;;7.25;4.07;;;16.70;92.60;;;;;;5016337;28;20040;-75
2023/08/24 05:42:28;;;;;;;5.78;4.07;;;16.60;92.70;;;;;;5017616;28;20084;-75
2023/08/24 05:44:54;;;;;;;5.63;4.00;;;16.70;93.10;;;;;;5016788;28;20049;-76
2023/08/24 05:47:20;;;;;;;4.70;4.18;;;16.60;92.80;;;;;;5016530;28;20163;-75
2023/08/24 05:49:46;;;;;;;8.02;4.45;;;16.60;92.80;;;;;;5014980;28;20156;-76
2023/08/24 05:52:11;;;;;;;5.72;4.97;;;16.60;92.90;;;;;;5016474;28;20030;-75
2023/08/24 05:54:38;;;;;;;6.20;5.38;;;16.60;93.00;;;;;;5016402;28;20053;-75
2023/08/24 05:57:05;;;;;;;8.40;5.20;;;16.50;93.10;;;;;;5016471;28;20079;-75
2023/08/24 05:59:35;;;;;;;5.07;4.45;;;16.60;93.10;;;;;;5015264;28;20472;-76
2023/08/24 06:02:00;;;;;;;5.38;4.22;;;16.50;93.10;;;;;;5015940;28;20084;-76
2023/08/24 06:04:26;;;;;;;6.38;4.88;;;16.50;93.00;;;;;;5014701;28;20484;-75
2023/08/24 06:06:54;;;;;;;8.32;4.80;;;16.50;93.00;;;;;;5015413;28;20085;-75
2023/08/24 06:09:19;;;;;;;5.63;4.60;;;16.50;92.90;;;;;;5016117;28;20057;-74
2023/08/24 06:11:45;;;;;;;5.95;4.68;;;16.50;92.90;;;;;;5015083;28;20087;-74
2023/08/24 06:14:11;;;;;;;4.60;4.00;;;16.50;92.80;;;;;;5014909;28;20037;-74
2023/08/24 06:16:37;;;;;;;5.30;3.85;;;16.50;92.80;;;;;;5015643;28;20037;-75
2023/08/24 06:19:03;;;;;;;5.22;3.95;;;16.40;92.80;;;;;;5015148;28;20041;-75
2023/08/24 06:21:29;;;;;;;3.95;3.53;;;16.50;92.90;;;;;;5014979;28;20041;-74
2023/08/24 06:23:55;;;;;;;7.47;4.03;;;16.50;92.90;;;;;;5018295;28;20030;-75
2023/08/24 06:26:21;;;;;;;4.55;3.55;;;16.50;92.90;;;;;;5013737;28;20036;-74
2023/08/24 06:28:48;;;;;;;4.57;3.30;;;16.50;92.90;;;;;;5013542;28;20475;-76
2023/08/24 06:31:16;;;;;;;5.20;3.22;;;16.50;92.80;;;;;;5014781;28;20029;-76
2023/08/24 06:33:42;;;;;;;4.30;3.90;;;16.50;92.60;;;;;;5006720;28;20603;-76
2023/08/24 06:36:09;;;;;;;3.85;3.15;;;16.40;92.50;;;;;;5016290;28;20516;-76
2023/08/24 06:38:35;;;;;;;4.22;3.83;;;16.50;92.30;;;;;;5013806;28;20165;-75
2023/08/24 06:41:01;;;;;;;3.47;3.17;;;16.50;92.30;;;;;;5015910;28;20128;-75
2023/08/24 06:43:27;;;;;;;3.80;3.20;;;16.50;92.30;;;;;;5015304;28;20571;-76
2023/08/24 06:45:55;;;;;;;3.17;2.88;;;16.50;92.30;;;;;;4996925;28;20125;-76
2023/08/24 06:48:22;;;;;;;5.47;3.70;;;16.50;92.30;;;;;;5015712;28;20090;-75
2023/08/24 06:50:48;;;;;;;5.13;3.70;;;16.50;92.30;;;;;;5015075;28;20048;-75
2023/08/24 06:53:14;;;;;;;7.57;3.65;;;16.50;92.30;;;;;;5015437;28;20034;-75
2023/08/24 06:55:41;;;;;;;3.63;3.33;;;16.50;92.40;;;;;;5015025;28;20033;-76
2023/08/24 06:58:07;;;;;;;4.30;3.42;;;16.50;92.40;;;;;;5015345;28;20543;-76
2023/08/24 07:00:33;;;;;;;3.83;3.53;;;16.60;92.60;;;;;;5015711;28;20052;-75
2023/08/24 07:02:59;;;;;;;4.18;3.10;;;16.50;92.20;;;;;;5014190;28;20041;-76
2023/08/24 07:05:25;;;;;;;6.22;3.50;;;16.50;92.30;;;;;;5014065;28;20494;-76
2023/08/24 07:07:53;;;;;;;4.00;3.67;;;16.50;92.30;;;;;;5013749;28;20076;-76
2023/08/24 07:10:20;;;;;;;4.85;3.30;;;16.60;92.20;;;;;;5013329;28;20417;-75
2023/08/24 07:12:46;;;;;;;3.25;2.95;;;16.60;92.10;;;;;;5015553;28;20044;-76
2023/08/24 07:15:13;;;;;;;4.22;3.50;;;16.60;91.90;;;;;;5031712;28;20035;-76
2023/08/24 07:17:39;;;;;;;5.00;3.17;;;16.60;91.90;;;;;;5014973;28;20033;-76
2023/08/24 07:20:05;;;;;;;5.45;3.85;;;16.60;92.00;;;;;;5011571;28;20048;-76
2023/08/24 07:22:32;;;;;;;3.90;3.30;;;16.60;92.10;;;;;;5014810;28;20037;-74
2023/08/24 07:24:58;;;;;;;4.40;3.97;;;16.60;92.10;;;;;;5014942;28;20529;-78
2023/08/24 07:27:24;;;;;;;5.05;3.60;;;16.60;91.80;;;;;;5014485;28;20048;-77
2023/08/24 07:29:50;;;;;;;4.78;3.50;;;16.60;91.90;;;;;;5015530;28;20033;-77
2023/08/24 07:32:16;;;;;;;4.78;3.45;;;16.70;91.90;;;;;;5013542;28;20116;-74
2023/08/24 07:34:42;;;;;;;4.22;3.38;;;16.70;91.80;;;;;;5014778;28;20183;-76
2023/08/24 07:37:08;;;;;;;3.70;3.40;;;16.70;91.80;;;;;;5013724;28;20034;-76
2023/08/24 07:39:34;;;;;;;4.15;3.72;;;16.70;91.80;;;;;;5030091;28;20045;-77
2023/08/24 07:42:00;;;;;;;4.53;3.80;;;16.70;91.80;;;;;;5014601;28;20045;-74
2023/08/24 07:44:26;;;;;;;4.25;3.85;;;16.70;91.90;;;;;;5013721;28;20848;-76
2023/08/24 07:46:52;;;;;;;5.18;3.92;;;16.60;92.00;;;;;;5013670;28;20069;-77
2023/08/24 07:49:19;;;;;;;4.40;4.00;;;16.60;92.30;;;;;;5013643;28;20034;-76
2023/08/24 07:51:47;;;;;;;5.25;4.75;;;16.70;92.20;;;;;;5012318;28;20033;-75
2023/08/24 07:54:14;;;;;;;7.00;5.03;;;16.60;92.10;;;;;;5017844;28;20037;-75
2023/08/24 07:56:40;;;;;;;5.82;4.90;;;16.60;92.10;;;;;;5015771;28;20037;-77
2023/08/24 07:59:06;;;;;;;7.05;5.55;;;16.60;92.10;;;;;;5014355;28;20049;-75
2023/08/24 08:01:33;;;;;;;7.10;5.57;;;16.60;92.10;;;;;;5014767;28;20036;-75
2023/08/24 08:04:00;;;;;;;5.95;4.90;;;16.60;92.20;;;;;;5013652;28;20172;-75
2023/08/24 08:06:26;;;;;;;6.90;5.20;;;16.50;92.30;;;;;;5015293;28;20061;-76
2023/08/24 08:08:52;;;;;;;9.65;6.20;;;16.50;92.30;;;;;;5028608;28;20033;-76
2023/08/24 08:11:18;;;;;;;7.75;5.20;;;16.50;92.10;;;;;;5011712;28;20405;-75
2023/08/24 08:13:45;;;;;;;6.30;4.05;;;16.60;92.10;;;;;;5014570;28;20038;-74
2023/08/24 08:16:11;;;;;;;9.15;4.00;;;16.60;91.80;;;;;;5018070;28;20029;-76
2023/08/24 08:18:38;;;;;;;4.55;3.40;;;16.60;91.70;;;;;;5015247;28;20386;-76
2023/08/24 08:21:15;;;;;;;8.00;3.95;;;16.70;91.70;;;;;;5027347;28;20132;-75
2023/08/24 08:23:41;;;;;;;4.85;4.30;;;16.70;91.60;;;;;;5013483;28;20048;-75
2023/08/24 08:26:10;;;;;;;7.35;4.70;;;16.70;91.30;;;;;;5013221;28;20037;-74
2023/08/24 08:28:36;;;;;;;7.95;4.70;;;16.70;91.40;;;;;;5010875;28;20046;-75
2023/08/24 08:31:03;;;;;;;7.38;4.38;;;16.80;91.60;;;;;;5015077;28;20053;-77
2023/08/24 08:33:29;;;;;;;6.05;4.60;;;16.80;91.70;;;;;;5012954;28;20412;-76
2023/08/24 08:35:56;;;;;;;5.57;4.38;;;16.80;91.60;;;;;;5014909;28;20030;-75
2023/08/24 08:38:25;;;;;;;5.30;4.35;;;16.70;91.30;;;;;;5014093;28;20596;-76
2023/08/24 08:40:54;;;;;;;6.40;4.40;;;16.70;91.40;;;;;;5014062;28;20088;-76
2023/08/24 08:43:22;;;;;;;4.47;4.07;;;16.80;91.40;;;;;;5028717;28;20045;-76
2023/08/24 08:45:53;;;;;;;5.03;4.20;;;16.80;91.50;;;;;;5013815;28;20042;-76
2023/08/24 08:48:21;;;;;;;6.28;3.70;;;16.80;91.30;;;;;;5013021;28;20040;-76
2023/08/24 08:50:55;;;;;;;5.15;3.70;;;16.80;90.90;;;;;;5012890;28;20041;-76
2023/08/24 08:53:22;;;;;;;5.35;4.07;;;16.80;90.70;;;;;;5012245;28;20069;-76
2023/08/24 08:55:54;;;;;;;6.20;3.72;;;16.80;90.90;;;;;;5013487;28;20425;-75
2023/08/24 08:58:22;;;;;;;4.65;3.33;;;16.80;90.90;;;;;;5015684;28;20042;-76
2023/08/24 09:00:49;;;;;;;4.22;3.45;;;16.80;91.00;;;;;;5016726;28;20082;-75
2023/08/24 09:03:19;;;;;;;3.33;3.03;;;16.80;90.90;;;;;;5017380;28;20231;-75
2023/08/24 09:05:48;;;;;;;5.35;3.70;;;16.70;91.10;;;;;;5017494;28;20148;-75
2023/08/24 09:08:17;;;;;;;4.53;3.58;;;16.80;91.00;;;;;;5018833;28;20584;-76
2023/08/24 09:10:43;;;;;;;6.53;3.95;;;16.80;90.80;;;;;;5017045;28;20109;-74
2023/08/24 09:13:09;;;;;;;3.70;3.30;;;16.80;90.90;;;;;;5017134;28;20505;-75
2023/08/24 09:15:38;;;;;;;5.18;3.28;;;16.80;90.90;;;;;;5017149;28;20037;-76
2023/08/24 09:18:04;;;;;;;5.72;3.20;;;16.80;90.90;;;;;;5017546;28;20045;-77
2023/08/24 09:20:30;;;;;;;4.10;2.90;;;16.70;90.90;;;;;;5008052;28;20440;-76
2023/08/24 09:22:57;;;;;;;6.43;4.25;;;16.80;91.00;;;;;;5016326;28;20038;-75
2023/08/24 09:25:24;;;;;;;5.30;4.80;;;16.80;90.80;;;;;;5017791;28;20034;-76
2023/08/24 09:28:00;;;;;;;8.25;5.57;;;16.70;90.70;;;;;;5032232;28;20048;-76
2023/08/24 09:30:35;;;;;;;5.85;4.70;;;16.80;90.40;;;;;;5020096;28;20025;-76
2023/08/24 09:33:09;;;;;;;6.20;5.07;;;16.80;90.50;;;;;;5015660;28;20048;-75
2023/08/24 09:35:36;;;;;;;5.35;4.85;;;16.90;90.80;;;;;;5017501;28;20388;-76
2023/08/24 09:38:23;;;;;;;5.72;4.70;;;16.90;90.40;;;;;;5016571;28;20504;-76
2023/08/24 09:40:54;;;;;;;7.13;4.20;;;17.00;90.40;;;;;;5032705;28;20053;-76
2023/08/24 09:43:21;;;;;;;5.30;4.80;;;17.00;90.10;;;;;;5017187;28;20052;-75
2023/08/24 09:45:51;;;;;;;6.03;4.70;;;17.10;90.00;;;;;;5030542;28;20620;-76
2023/08/24 09:48:17;;;;;;;5.55;4.22;;;17.10;89.30;;;;;;5030428;28;20530;-76
2023/08/24 09:50:47;;;;;;;6.03;4.30;;;17.20;88.60;;;;;;5016035;28;20038;-75
2023/08/24 09:53:20;;;;;;;4.78;3.92;;;17.20;88.60;;;;;;5015074;28;20417;-75
2023/08/24 09:55:59;;;;;;;4.38;3.97;;;17.30;88.50;;;;;;5014389;28;20045;-75
2023/08/24 09:58:27;;;;;;;4.85;3.58;;;17.30;88.20;;;;;;5030341;28;20037;-76
2023/08/24 10:00:53;;;;;;;3.92;3.50;;;17.30;89.10;;;;;;5031297;28;20382;-75
2023/08/24 10:03:21;;;;;;;3.97;3.58;;;17.40;88.00;;;;;;5016602;28;20082;-76
2023/08/24 10:05:55;;;;;;;4.72;3.53;;;17.40;88.20;;;;;;5014715;28;20060;-76
2023/08/24 10:08:26;;;;;;;3.42;3.13;;;17.40;88.00;;;;;;5015736;28;20038;-76
2023/08/24 10:10:55;;;;;;;3.38;3.00;;;17.40;86.80;;;;;;5015982;28;20049;-76
2023/08/24 10:13:26;;;;;;;3.70;3.40;;;17.40;87.40;;;;;;5015895;28;20061;-76
2023/08/24 10:15:54;;;;;;;4.65;3.08;;;17.50;87.20;;;;;;5018424;28;20040;-76
2023/08/24 10:18:23;;;;;;;3.10;2.80;;;17.50;87.00;;;;;;5020121;28;20656;-76
2023/08/24 10:20:51;;;;;;;3.95;3.03;;;17.50;86.90;;;;;;5014619;28;20030;-76
2023/08/24 10:23:19;;;;;;;4.88;3.10;;;17.50;86.00;;;;;;5014719;28;20045;-76
2023/08/24 10:25:46;;;;;;;2.60;2.40;;;17.50;85.20;;;;;;5015527;28;20707;-76
2023/08/24 10:28:15;;;;;;;3.20;2.97;;;17.50;85.60;;;;;;5015531;28;20041;-76
2023/08/24 10:30:44;;;;;;;3.25;2.95;;;17.60;85.40;;;;;;5014487;28;20041;-76
2023/08/24 10:33:12;;;;;;;3.97;2.83;;;17.60;85.50;;;;;;5015530;28;20404;-76
2023/08/24 10:35:39;;;;;;;3.50;3.20;;;17.60;85.10;;;;;;5015273;28;20122;-76
2023/08/24 10:38:05;;;;;;;4.38;3.17;;;17.60;85.20;;;;;;5013675;28;20129;-75
2023/08/24 10:40:37;;;;;;;3.97;2.97;;;17.60;85.20;;;;;;5014711;28;20138;-76
2023/08/24 10:43:05;;;;;;;3.33;3.03;;;17.60;85.30;;;;;;5015806;28;20057;-76
2023/08/24 10:45:59;;;;;;;3.65;3.03;;;17.60;85.30;;;;;;5014307;28;20075;-76
2023/08/24 10:48:30;;;;;;;3.20;2.90;;;17.70;85.50;;;;;;5030004;28;20452;-76
2023/08/24 10:51:20;;;;;;;6.22;3.95;;;17.60;85.70;;;;;;5031277;28;20037;-76
2023/08/24 10:53:51;;;;;;;4.40;3.97;;;17.70;86.20;;;;;;5030130;28;20041;-76
2023/08/24 10:56:17;;;;;;;6.55;3.72;;;17.70;85.10;;;;;;5013838;28;20042;-76
2023/08/24 10:59:08;;;;;;;5.15;3.45;;;17.70;85.40;;;;;;5016279;28;20468;-74
2023/08/24 11:01:35;;;;;;;3.92;3.00;;;17.70;85.10;;;;;;5015105;28;20030;-75
2023/08/24 11:04:04;;;;;;;3.17;2.90;;;17.70;85.00;;;;;;5015231;28;20523;-74
2023/08/24 11:06:30;;;;;;;3.78;3.00;;;17.80;85.00;;;;;;5016564;28;20057;-76
2023/08/24 11:09:13;;;;;;;3.33;2.90;;;17.80;84.20;;;;;;4995867;28;20107;-75
2023/08/24 11:11:40;;;;;;;3.38;3.10;;;17.80;84.20;;;;;;5014571;28;20146;-75
2023/08/24 11:14:22;;;;;;;3.38;3.08;;;17.80;83.70;;;;;;5014368;28;20046;-74
2023/08/24 11:16:49;;;;;;;3.67;3.38;;;17.90;83.60;;;;;;5014740;28;20041;-75
2023/08/24 11:19:17;;;;;;;4.07;3.55;;;17.90;83.00;;;;;;5012967;28;20038;-76
2023/08/24 11:21:45;;;;;;;5.47;3.08;;;18.00;83.30;;;;;;5014411;28;20037;-75
2023/08/24 11:24:16;;;;;;;3.40;3.08;;;18.00;82.90;;;;;;5014660;28;20029;-75
2023/08/24 11:26:49;;;;;;;4.07;2.90;;;18.00;82.50;;;;;;5013629;28;20082;-75
2023/08/24 11:29:15;;;;;;;2.80;2.53;;;18.10;82.30;;;;;;5028510;28;20386;-75
2023/08/24 11:31:42;;;;;;;3.22;2.42;;;18.10;82.40;;;;;;5029341;28;20041;-74
2023/08/24 11:34:08;;;;;;;3.35;2.60;;;18.10;82.00;;;;;;5011748;28;20039;-74
2023/08/24 11:36:46;;;;;;;2.88;2.67;;;18.10;82.20;;;;;;5016095;28;20123;-74
2023/08/24 11:39:20;;;;;;;3.40;2.85;;;18.10;82.40;;;;;;5030564;28;20038;-75
2023/08/24 11:41:58;;;;;;;3.42;3.13;;;18.10;83.00;;;;;;5029135;28;20476;-72
2023/08/24 11:44:24;;;;;;;2.92;2.63;;;18.10;83.30;;;;;;5013770;28;20053;-74
2023/08/24 11:46:51;;;;;;;2.50;2.30;;;18.00;83.20;;;;;;5014230;28;20048;-75
2023/08/24 11:49:17;;;;;;;2.40;2.20;;;18.00;82.70;;;;;;5013186;28;20034;-74
2023/08/24 11:51:43;;;;;;;2.17;1.98;;;18.00;82.90;;;;;;5014922;28;20184;-76
2023/08/24 11:54:09;;;;;;;2.85;2.10;;;18.00;82.80;;;;;;5014438;28;20605;-74
2023/08/24 11:56:46;;;;;;;2.72;2.40;;;18.00;82.90;;;;;;5014114;28;20061;-75
2023/08/24 11:59:13;;;;;;;4.00;2.53;;;17.90;82.90;;;;;;5014686;28;20045;-73
2023/08/24 12:01:41;;;;;;;2.20;2.10;;;17.90;82.90;;;;;;5029394;28;20040;-75
2023/08/24 12:04:07;;;;;;;2.25;2.03;;;17.90;83.00;;;;;;5013134;28;20053;-74
2023/08/24 12:06:33;;;;;;;2.30;2.03;;;17.90;82.20;;;;;;5014851;28;20453;-75
2023/08/24 12:08:59;;;;;;;3.17;2.20;;;18.00;82.30;;;;;;5013043;28;20429;-75
2023/08/24 12:11:26;;;;;;;4.53;2.55;;;18.00;82.70;;;;;;5013666;28;20079;-73
2023/08/24 12:13:55;;;;;;;2.55;2.35;;;18.00;81.60;;;;;;5029292;28;20393;-74
2023/08/24 12:16:27;;;;;;;2.28;2.03;;;18.00;82.00;;;;;;5011929;28;20041;-74
2023/08/24 12:19:02;;;;;;;2.25;1.55;;;18.00;81.80;;;;;;5012923;28;20049;-75
2023/08/24 12:21:29;;;;;;;2.17;1.88;;;18.00;82.10;;;;;;5012916;28;20052;-76
2023/08/24 12:23:57;;;;;;;2.08;1.80;;;18.00;81.60;;;;;;5014071;28;20172;-75
2023/08/24 12:26:23;;;;;;;3.35;1.92;;;18.00;81.70;;;;;;5013923;28;20060;-74
2023/08/24 12:28:51;;;;;;;2.20;1.85;;;18.00;81.40;;;;;;5014243;28;20033;-76
2023/08/24 12:31:18;;;;;;;1.90;1.80;;;18.00;81.20;;;;;;5031071;28;20509;-74
2023/08/24 12:33:45;;;;;;;1.98;1.77;;;18.00;81.10;;;;;;5016648;28;20485;-74
2023/08/24 12:36:11;;;;;;;2.42;2.03;;;18.10;81.30;;;;;;5017945;28;20436;-75
2023/08/24 12:38:38;;;;;;;2.30;1.83;;;18.10;81.70;;;;;;5017782;28;20038;-74
2023/08/24 12:41:04;;;;;;;4.47;2.10;;;18.10;81.00;;;;;;5018061;28;20045;-75
2023/08/24 12:43:30;;;;;;;2.58;1.80;;;18.10;81.30;;;;;;5017375;28;20033;-75
2023/08/24 12:45:56;;;;;;;2.65;2.03;;;18.10;81.40;;;;;;5013776;28;20041;-74
2023/08/24 12:48:22;;;;;;;5.43;2.20;;;18.10;81.20;;;;;;5018226;28;20033;-76